Time;durP1;ratioP1;P1;durP2;ratioP2;P2;SDS_P1;SDS_P2;PMS_P1;PMS_P2;Temp;Humidity;BMP_temperature;BMP_pressure;BME280_temperature;BME280_humidity;BME280_pressure;Samples;Min_cycle;Max_cycle;Signal;HPM_P1;HPM_P2
2023/08/14 18:46:57;;;;;;;10.33;4.50;;;24.90;48.20;;;;;;5087914;27;20572;-70
2023/08/14 18:49:25;;;;;;;9.90;3.67;;;24.00;57.00;;;;;;5087978;28;20535;-70
2023/08/14 18:51:52;;;;;;;7.60;3.80;;;23.90;56.90;;;;;;5086806;28;20493;-71
2023/08/14 18:54:20;;;;;;;7.50;3.90;;;23.70;56.70;;;;;;5087582;28;20446;-71
2023/08/14 18:56:47;;;;;;;9.47;5.00;;;23.70;56.80;;;;;;5086571;28;20504;-71
2023/08/14 18:59:14;;;;;;;6.30;3.80;;;23.60;59.80;;;;;;5087075;28;20468;-72
2023/08/14 19:01:41;;;;;;;7.43;3.90;;;23.40;62.70;;;;;;5088027;28;20446;-66
2023/08/14 19:04:09;;;;;;;6.50;3.70;;;23.30;64.80;;;;;;5088144;28;20870;-66
2023/08/14 19:06:36;;;;;;;7.93;4.47;;;23.30;64.90;;;;;;5087862;28;20539;-66
2023/08/14 19:09:04;;;;;;;8.70;4.43;;;23.20;64.80;;;;;;5088288;28;20539;-68
2023/08/14 19:11:31;;;;;;;6.87;4.00;;;23.10;65.30;;;;;;5411761;23;20497;-68
2023/08/14 19:13:58;;;;;;;10.83;4.20;;;23.00;69.80;;;;;;5028185;28;20532;-69
2023/08/14 19:16:30;;;;;;;8.43;4.50;;;22.80;72.60;;;;;;5028186;28;20563;-69
2023/08/14 19:18:57;;;;;;;10.40;3.90;;;22.70;72.60;;;;;;5027589;28;20456;-69
2023/08/14 19:21:26;;;;;;;8.30;5.27;;;22.60;72.50;;;;;;5027881;28;20459;-69
2023/08/14 19:23:53;;;;;;;7.97;4.70;;;22.50;88.30;;;;;;5027356;28;20510;-69
2023/08/14 19:26:20;;;;;;;7.03;5.53;;;22.50;88.30;;;;;;5028166;28;20876;-69
2023/08/14 19:28:46;;;;;;;11.33;6.33;;;22.50;88.30;;;;;;5027941;28;20461;-69
2023/08/14 19:31:15;;;;;;;8.40;5.87;;;22.40;88.30;;;;;;5044530;23;20453;-79
2023/08/14 19:33:44;;;;;;;8.97;5.67;;;22.40;88.30;;;;;;5027865;28;20522;-79
2023/08/14 19:36:14;;;;;;;9.30;5.67;;;22.40;88.60;;;;;;5028221;28;20488;-79
2023/08/14 19:38:53;;;;;;;9.27;6.30;;;22.40;90.30;;;;;;5028114;28;20531;-79
2023/08/14 19:41:42;;;;;;;9.23;6.50;;;22.30;91.60;;;;;;5027891;28;20481;-84
2023/08/14 19:50:09;;;;;;;10.70;9.70;;;22.00;95.20;;;;;;5033580;23;20494;-63
2023/08/14 19:52:36;;;;;;;13.30;12.13;;;21.90;95.90;;;;;;5055109;28;20447;-64
2023/08/14 19:55:05;;;;;;;14.90;13.80;;;21.80;95.90;;;;;;5054898;28;20978;-64
2023/08/14 19:57:32;;;;;;;15.30;14.10;;;21.80;95.90;;;;;;5054822;28;20943;-63
2023/08/14 19:59:59;;;;;;;16.90;15.40;;;21.80;95.90;;;;;;5054833;28;20483;-64
2023/08/14 20:02:27;;;;;;;21.90;20.50;;;21.80;95.90;;;;;;5054492;28;20885;-64
2023/08/14 20:04:54;;;;;;;22.10;20.50;;;21.70;96.70;;;;;;5054626;28;20456;-64
2023/08/14 20:07:21;;;;;;;21.57;20.27;;;21.70;97.50;;;;;;5054608;28;20918;-64
2023/08/14 20:09:47;;;;;;;22.60;21.00;;;21.70;98.10;;;;;;5054728;28;20450;-64
2023/08/14 20:12:15;;;;;;;23.27;21.67;;;21.70;99.00;;;;;;5054401;28;20458;-64
2023/08/14 20:14:42;;;;;;;23.87;22.00;;;21.70;99.20;;;;;;5054277;28;20459;-64
2023/08/14 20:17:09;;;;;;;23.17;21.83;;;21.70;99.20;;;;;;5054698;28;20455;-64
2023/08/14 20:19:36;;;;;;;25.40;23.90;;;21.70;99.20;;;;;;5054271;28;20448;-64
2023/08/14 20:22:03;;;;;;;26.70;24.87;;;21.70;99.20;;;;;;5054328;28;20451;-64
2023/08/14 20:24:30;;;;;;;27.53;26.00;;;21.60;99.90;;;;;;5054302;28;20939;-64
2023/08/14 20:26:56;;;;;;;32.40;30.00;;;21.60;99.90;;;;;;5054387;28;20440;-63
2023/08/14 20:29:24;;;;;;;29.00;27.07;;;21.60;95.80;;;;;;5054077;28;20455;-64
2023/08/14 20:31:51;;;;;;;31.30;29.60;;;21.70;95.80;;;;;;5054254;28;20452;-64
2023/08/14 20:34:18;;;;;;;28.80;27.00;;;21.60;95.80;;;;;;5054009;28;20448;-64
2023/08/14 20:36:45;;;;;;;32.80;31.00;;;21.60;95.80;;;;;;5054130;28;20848;-64
2023/08/14 20:39:12;;;;;;;36.67;34.77;;;21.50;95.70;;;;;;5054036;28;20456;-64
2023/08/14 20:41:39;;;;;;;42.40;39.80;;;21.50;95.70;;;;;;5053946;28;20447;-64
2023/08/14 20:44:06;;;;;;;43.67;41.57;;;21.40;96.90;;;;;;5053611;28;20462;-64
2023/08/14 20:46:34;;;;;;;47.40;44.90;;;21.40;98.00;;;;;;5053857;28;20458;-64
2023/08/14 20:49:01;;;;;;;57.23;54.67;;;21.30;99.00;;;;;;5053824;28;20455;-64
2023/08/14 20:51:28;;;;;;;68.80;65.80;;;21.20;99.00;;;;;;5053680;28;20962;-64
2023/08/14 20:53:55;;;;;;;74.17;71.00;;;21.10;99.90;;;;;;5053692;28;20482;-64
2023/08/14 20:56:22;;;;;;;93.50;89.57;;;21.10;99.90;;;;;;5054064;28;20483;-64
2023/08/14 20:58:48;;;;;;;99.63;95.47;;;21.10;99.90;;;;;;5053020;28;20455;-64
2023/08/14 21:01:15;;;;;;;103.47;99.37;;;21.10;99.90;;;;;;5053808;28;20451;-64
2023/08/14 21:03:43;;;;;;;109.03;105.00;;;21.00;99.90;;;;;;5053334;28;20939;-64
2023/08/14 21:06:10;;;;;;;116.10;111.73;;;21.00;99.90;;;;;;5053612;28;20443;-64
2023/08/14 21:08:37;;;;;;;117.07;112.77;;;21.00;99.90;;;;;;5053526;28;20458;-64
2023/08/14 21:11:04;;;;;;;124.80;120.00;;;21.00;99.90;;;;;;5053202;28;20463;-64
2023/08/14 21:13:31;;;;;;;116.20;111.67;;;21.00;99.90;;;;;;5053422;28;20451;-64
2023/08/14 21:15:58;;;;;;;128.90;123.60;;;20.90;99.90;;;;;;5053398;28;20482;-64
2023/08/14 21:18:25;;;;;;;134.93;129.83;;;20.90;99.90;;;;;;5053290;28;20444;-64
2023/08/14 21:20:53;;;;;;;151.97;145.97;;;20.80;99.90;;;;;;5053133;28;20451;-64
2023/08/14 21:23:20;;;;;;;155.00;149.07;;;20.80;99.90;;;;;;5052867;28;20452;-64
2023/08/14 21:25:47;;;;;;;175.07;168.30;;;20.80;99.90;;;;;;5053156;28;20451;-64
2023/08/14 21:28:14;;;;;;;197.60;190.00;;;20.70;99.90;;;;;;5053223;28;20814;-64
2023/08/14 21:30:41;;;;;;;211.70;203.33;;;20.60;99.90;;;;;;5052949;28;20542;-64
2023/08/14 21:33:07;;;;;;;256.53;245.93;;;20.60;99.90;;;;;;5053209;28;20454;-64
2023/08/14 21:35:34;;;;;;;251.63;241.43;;;20.70;99.90;;;;;;5052968;28;20834;-64
2023/08/14 21:38:03;;;;;;;239.27;229.33;;;20.80;99.90;;;;;;5052855;28;20457;-64
2023/08/14 21:40:29;;;;;;;225.40;216.60;;;20.90;99.90;;;;;;5053083;28;20506;-64
2023/08/14 21:42:57;;;;;;;229.63;220.23;;;20.90;99.90;;;;;;5052852;28;20475;-64
2023/08/14 21:45:24;;;;;;;215.27;207.07;;;20.90;99.90;;;;;;5052889;28;20458;-64
2023/08/14 21:47:50;;;;;;;226.10;217.30;;;20.90;99.90;;;;;;5052734;28;20947;-64
2023/08/14 21:50:17;;;;;;;206.97;199.03;;;20.90;99.90;;;;;;5052491;28;20469;-64
2023/08/14 21:52:44;;;;;;;208.43;200.37;;;20.90;99.90;;;;;;5052445;28;20451;-64
2023/08/14 21:55:12;;;;;;;207.03;199.23;;;20.90;99.90;;;;;;5052445;28;20452;-64
2023/08/14 21:57:39;;;;;;;220.57;211.80;;;20.80;99.90;;;;;;5052747;28;20448;-64
2023/08/14 22:00:07;;;;;;;248.97;238.80;;;20.70;99.90;;;;;;5052718;28;20477;-64
2023/08/14 22:02:34;;;;;;;277.73;265.43;;;20.70;99.90;;;;;;5052415;28;20491;-64
2023/08/14 22:05:01;;;;;;;284.70;272.30;;;20.80;99.90;;;;;;5052380;28;20454;-64
2023/08/14 22:07:28;;;;;;;280.27;268.07;;;20.80;99.90;;;;;;5052384;28;20936;-64
2023/08/14 22:09:55;;;;;;;265.27;253.37;;;20.80;99.90;;;;;;5052310;28;20455;-64
2023/08/14 22:12:23;;;;;;;263.00;251.80;;;20.80;99.90;;;;;;5052098;28;20466;-64
2023/08/14 22:14:50;;;;;;;253.07;242.30;;;20.80;99.90;;;;;;5052471;28;20454;-64
2023/08/14 22:17:16;;;;;;;245.47;235.00;;;20.80;99.90;;;;;;5052195;28;20586;-64
2023/08/14 22:19:43;;;;;;;265.93;254.73;;;20.70;99.90;;;;;;5051978;28;20454;-64
2023/08/14 22:22:10;;;;;;;272.20;260.80;;;20.60;99.90;;;;;;5052207;28;20448;-64
2023/08/14 22:24:37;;;;;;;286.03;273.77;;;20.60;99.90;;;;;;5052369;28;20448;-64
2023/08/14 22:27:04;;;;;;;300.40;287.40;;;20.50;99.90;;;;;;5052077;28;20455;-64
2023/08/14 22:29:32;;;;;;;308.57;295.27;;;20.50;99.90;;;;;;5052169;28;20456;-64
2023/08/14 22:31:59;;;;;;;310.40;297.23;;;20.60;99.90;;;;;;5051975;28;20447;-64
2023/08/14 22:34:26;;;;;;;291.53;279.13;;;20.70;99.90;;;;;;5051903;28;20459;-64
2023/08/14 22:36:52;;;;;;;298.20;285.30;;;20.80;99.90;;;;;;5052363;28;20826;-64
2023/08/14 22:39:19;;;;;;;275.57;264.00;;;20.80;99.90;;;;;;5052118;28;20448;-64
2023/08/14 22:41:46;;;;;;;271.20;259.80;;;20.80;99.90;;;;;;5051967;28;20451;-64
2023/08/14 22:44:13;;;;;;;269.20;258.13;;;20.90;99.90;;;;;;5051865;28;20947;-64
2023/08/14 22:46:41;;;;;;;266.03;255.27;;;21.00;99.90;;;;;;5051952;28;20451;-64
2023/08/14 22:49:08;;;;;;;238.30;228.70;;;21.10;99.90;;;;;;5051679;28;20802;-64
2023/08/14 22:51:34;;;;;;;229.10;220.30;;;21.10;99.90;;;;;;5052095;28;20452;-64
2023/08/14 22:54:01;;;;;;;218.93;210.40;;;21.10;99.90;;;;;;5052020;28;20885;-64
2023/08/14 22:56:28;;;;;;;226.27;217.40;;;21.10;99.90;;;;;;5051950;28;20486;-64
2023/08/14 22:58:56;;;;;;;236.13;226.70;;;21.00;99.90;;;;;;5051901;28;20474;-64
2023/08/14 23:01:22;;;;;;;239.90;229.80;;;20.90;99.90;;;;;;5051597;28;20451;-64
2023/08/14 23:03:51;;;;;;;242.53;232.53;;;20.80;99.90;;;;;;5051860;28;20448;-64
2023/08/14 23:06:17;;;;;;;275.67;264.10;;;20.80;99.90;;;;;;5051959;28;20459;-64
2023/08/14 23:08:44;;;;;;;306.23;292.73;;;20.70;99.90;;;;;;5051672;28;20451;-64
2023/08/14 23:11:11;;;;;;;306.03;292.70;;;20.70;99.90;;;;;;5051812;28;20837;-64
2023/08/14 23:13:38;;;;;;;321.83;307.67;;;20.60;99.90;;;;;;5051649;28;20452;-64
2023/08/14 23:16:05;;;;;;;307.40;293.97;;;20.70;99.90;;;;;;5051517;28;20472;-64
2023/08/14 23:18:32;;;;;;;308.23;294.73;;;20.60;99.90;;;;;;5051890;28;20798;-64
2023/08/14 23:21:00;;;;;;;327.53;313.13;;;20.60;99.90;;;;;;5051568;28;20455;-64
2023/08/14 23:23:26;;;;;;;339.50;323.80;;;20.50;99.90;;;;;;5055359;28;20815;-64
2023/08/14 23:25:53;;;;;;;339.10;323.90;;;20.60;99.90;;;;;;5055463;28;20447;-64
2023/08/14 23:28:20;;;;;;;344.00;328.60;;;20.60;99.90;;;;;;5055273;28;20954;-63
2023/08/14 23:30:47;;;;;;;340.33;325.13;;;20.50;99.90;;;;;;5055247;28;20470;-64
2023/08/14 23:33:14;;;;;;;350.40;334.60;;;20.50;99.90;;;;;;5055346;28;20647;-63
2023/08/14 23:35:40;;;;;;;341.70;326.43;;;20.60;99.90;;;;;;5055083;28;20458;-63
2023/08/14 23:38:09;;;;;;;338.97;323.73;;;20.60;99.90;;;;;;5055482;28;20451;-64
2023/08/14 23:40:35;;;;;;;333.40;318.50;;;20.60;99.90;;;;;;5055179;28;20470;-63
2023/08/14 23:43:03;;;;;;;325.80;311.33;;;20.60;99.90;;;;;;5055043;28;20451;-64
2023/08/14 23:45:30;;;;;;;327.57;313.10;;;20.50;99.90;;;;;;5055319;28;20545;-64
2023/08/14 23:47:57;;;;;;;323.70;309.30;;;20.60;99.90;;;;;;5055417;28;20852;-64
2023/08/14 23:50:24;;;;;;;310.10;296.53;;;20.60;99.90;;;;;;5054792;28;20464;-64
2023/08/14 23:52:50;;;;;;;315.00;301.13;;;20.60;99.90;;;;;;5054841;28;20448;-64
2023/08/14 23:55:19;;;;;;;301.87;288.77;;;20.50;99.90;;;;;;5054861;28;20456;-64
2023/08/14 23:57:45;;;;;;;320.07;305.27;;;20.50;99.90;;;;;;5054646;28;20479;-64
